sensor_id;sensor_type;location;lat;lon;timestamp;P1;durP1;ratioP1;P2;durP2;ratioP2
3050;SDS011;1535;51.098;6.414;2023-11-21T00:01:31;15.77;;;15.27;;
3050;SDS011;1535;51.098;6.414;2023-11-21T00:03:59;15.00;;;14.50;;
3050;SDS011;1535;51.098;6.414;2023-11-21T00:06:27;15.90;;;15.40;;
3050;SDS011;1535;51.098;6.414;2023-11-21T00:08:55;15.57;;;15.07;;
3050;SDS011;1535;51.098;6.414;2023-11-21T00:11:21;15.77;;;15.27;;
3050;SDS011;1535;51.098;6.414;2023-11-21T00:13:50;15.70;;;15.20;;
3050;SDS011;1535;51.098;6.414;2023-11-21T00:16:17;16.50;;;15.90;;
3050;SDS011;1535;51.098;6.414;2023-11-21T00:18:44;16.73;;;16.13;;
3050;SDS011;1535;51.098;6.414;2023-11-21T00:21:13;15.97;;;15.37;;
3050;SDS011;1535;51.098;6.414;2023-11-21T00:23:40;16.03;;;15.43;;
3050;SDS011;1535;51.098;6.414;2023-11-21T00:26:07;15.43;;;14.93;;
3050;SDS011;1535;51.098;6.414;2023-11-21T00:28:34;15.70;;;15.17;;
3050;SDS011;1535;51.098;6.414;2023-11-21T00:31:02;16.20;;;15.60;;
3050;SDS011;1535;51.098;6.414;2023-11-21T00:33:29;16.37;;;15.77;;
3050;SDS011;1535;51.098;6.414;2023-11-21T00:35:56;16.07;;;15.47;;
3050;SDS011;1535;51.098;6.414;2023-11-21T00:38:24;16.07;;;15.53;;
3050;SDS011;1535;51.098;6.414;2023-11-21T00:40:51;15.40;;;14.90;;
3050;SDS011;1535;51.098;6.414;2023-11-21T00:43:21;15.83;;;15.23;;
3050;SDS011;1535;51.098;6.414;2023-11-21T00:45:47;16.73;;;16.13;;
3050;SDS011;1535;51.098;6.414;2023-11-21T00:48:14;16.27;;;15.67;;
3050;SDS011;1535;51.098;6.414;2023-11-21T00:50:41;16.20;;;15.60;;
3050;SDS011;1535;51.098;6.414;2023-11-21T00:53:09;16.77;;;16.17;;
3050;SDS011;1535;51.098;6.414;2023-11-21T00:55:38;16.77;;;16.17;;
3050;SDS011;1535;51.098;6.414;2023-11-21T00:58:05;15.90;;;15.30;;
3050;SDS011;1535;51.098;6.414;2023-11-21T01:00:33;16.30;;;15.70;;
3050;SDS011;1535;51.098;6.414;2023-11-21T01:02:59;15.93;;;15.40;;
3050;SDS011;1535;51.098;6.414;2023-11-21T01:05:27;16.07;;;15.47;;
3050;SDS011;1535;51.098;6.414;2023-11-21T01:07:54;16.67;;;16.07;;
3050;SDS011;1535;51.098;6.414;2023-11-21T01:10:21;16.70;;;16.10;;
3050;SDS011;1535;51.098;6.414;2023-11-21T01:12:49;16.37;;;15.77;;
3050;SDS011;1535;51.098;6.414;2023-11-21T01:15:16;16.50;;;15.90;;
3050;SDS011;1535;51.098;6.414;2023-11-21T01:17:43;16.13;;;15.53;;
3050;SDS011;1535;51.098;6.414;2023-11-21T01:20:10;16.00;;;15.40;;
3050;SDS011;1535;51.098;6.414;2023-11-21T01:22:38;14.80;;;14.30;;
3050;SDS011;1535;51.098;6.414;2023-11-21T01:25:05;16.30;;;15.70;;
3050;SDS011;1535;51.098;6.414;2023-11-21T01:27:32;15.60;;;15.10;;
3050;SDS011;1535;51.098;6.414;2023-11-21T01:30:02;14.60;;;14.10;;
3050;SDS011;1535;51.098;6.414;2023-11-21T01:32:32;16.23;;;15.63;;
3050;SDS011;1535;51.098;6.414;2023-11-21T01:35:00;15.50;;;15.00;;
3050;SDS011;1535;51.098;6.414;2023-11-21T01:37:27;17.20;;;16.60;;
3050;SDS011;1535;51.098;6.414;2023-11-21T01:39:55;16.50;;;15.90;;
3050;SDS011;1535;51.098;6.414;2023-11-21T01:42:22;15.77;;;15.27;;
3050;SDS011;1535;51.098;6.414;2023-11-21T01:44:50;16.17;;;15.57;;
3050;SDS011;1535;51.098;6.414;2023-11-21T01:47:18;16.20;;;15.60;;
3050;SDS011;1535;51.098;6.414;2023-11-21T01:49:46;16.80;;;16.20;;
3050;SDS011;1535;51.098;6.414;2023-11-21T01:52:14;16.67;;;16.07;;
3050;SDS011;1535;51.098;6.414;2023-11-21T01:54:41;16.80;;;16.20;;
3050;SDS011;1535;51.098;6.414;2023-11-21T01:57:08;16.67;;;16.07;;
3050;SDS011;1535;51.098;6.414;2023-11-21T01:59:36;16.37;;;15.77;;
3050;SDS011;1535;51.098;6.414;2023-11-21T02:02:04;15.50;;;15.00;;
3050;SDS011;1535;51.098;6.414;2023-11-21T02:04:34;16.80;;;16.20;;
3050;SDS011;1535;51.098;6.414;2023-11-21T02:07:02;15.60;;;15.10;;
3050;SDS011;1535;51.098;6.414;2023-11-21T02:09:30;16.20;;;15.60;;
3050;SDS011;1535;51.098;6.414;2023-11-21T02:11:58;16.30;;;15.70;;
3050;SDS011;1535;51.098;6.414;2023-11-21T02:14:25;17.90;;;17.20;;
3050;SDS011;1535;51.098;6.414;2023-11-21T02:16:53;15.57;;;15.07;;
3050;SDS011;1535;51.098;6.414;2023-11-21T02:19:21;16.57;;;15.97;;
3050;SDS011;1535;51.098;6.414;2023-11-21T02:21:50;16.70;;;16.10;;
3050;SDS011;1535;51.098;6.414;2023-11-21T02:24:33;16.13;;;15.53;;
3050;SDS011;1535;51.098;6.414;2023-11-21T02:27:00;16.67;;;16.07;;
3050;SDS011;1535;51.098;6.414;2023-11-21T02:29:27;16.80;;;16.20;;
3050;SDS011;1535;51.098;6.414;2023-11-21T02:31:55;15.10;;;14.60;;
3050;SDS011;1535;51.098;6.414;2023-11-21T02:34:23;16.47;;;15.87;;
3050;SDS011;1535;51.098;6.414;2023-11-21T02:36:50;16.70;;;16.10;;
3050;SDS011;1535;51.098;6.414;2023-11-21T02:39:17;16.20;;;15.60;;
3050;SDS011;1535;51.098;6.414;2023-11-21T02:41:48;16.03;;;15.43;;
3050;SDS011;1535;51.098;6.414;2023-11-21T02:44:15;16.40;;;15.80;;
3050;SDS011;1535;51.098;6.414;2023-11-21T02:46:43;16.13;;;15.53;;
3050;SDS011;1535;51.098;6.414;2023-11-21T02:49:12;18.10;;;17.40;;
3050;SDS011;1535;51.098;6.414;2023-11-21T02:51:39;16.97;;;16.37;;
3050;SDS011;1535;51.098;6.414;2023-11-21T02:54:06;17.00;;;16.40;;
3050;SDS011;1535;51.098;6.414;2023-11-21T02:56:33;16.30;;;15.70;;
3050;SDS011;1535;51.098;6.414;2023-11-21T02:59:01;17.50;;;16.80;;
3050;SDS011;1535;51.098;6.414;2023-11-21T03:01:28;16.00;;;15.40;;
3050;SDS011;1535;51.098;6.414;2023-11-21T03:03:55;17.00;;;16.40;;
3050;SDS011;1535;51.098;6.414;2023-11-21T03:06:22;16.90;;;16.30;;
3050;SDS011;1535;51.098;6.414;2023-11-21T03:08:49;17.40;;;16.70;;
3050;SDS011;1535;51.098;6.414;2023-11-21T03:11:17;17.50;;;16.80;;
3050;SDS011;1535;51.098;6.414;2023-11-21T03:13:43;16.23;;;15.63;;
3050;SDS011;1535;51.098;6.414;2023-11-21T03:16:12;16.40;;;15.80;;
3050;SDS011;1535;51.098;6.414;2023-11-21T03:18:39;17.20;;;16.60;;
3050;SDS011;1535;51.098;6.414;2023-11-21T03:21:06;16.80;;;16.20;;
3050;SDS011;1535;51.098;6.414;2023-11-21T03:23:34;17.40;;;16.70;;
3050;SDS011;1535;51.098;6.414;2023-11-21T03:26:00;18.13;;;17.43;;
3050;SDS011;1535;51.098;6.414;2023-11-21T03:28:27;17.30;;;16.60;;
3050;SDS011;1535;51.098;6.414;2023-11-21T03:30:55;17.03;;;16.43;;
3050;SDS011;1535;51.098;6.414;2023-11-21T03:33:23;16.60;;;16.00;;
3050;SDS011;1535;51.098;6.414;2023-11-21T03:35:50;17.10;;;16.50;;
3050;SDS011;1535;51.098;6.414;2023-11-21T03:38:18;16.20;;;15.60;;
3050;SDS011;1535;51.098;6.414;2023-11-21T03:40:45;16.37;;;15.77;;
3050;SDS011;1535;51.098;6.414;2023-11-21T03:43:13;16.10;;;15.50;;
3050;SDS011;1535;51.098;6.414;2023-11-21T03:45:40;17.60;;;16.90;;
3050;SDS011;1535;51.098;6.414;2023-11-21T03:48:06;16.80;;;16.20;;
3050;SDS011;1535;51.098;6.414;2023-11-21T03:50:35;15.30;;;14.80;;
3050;SDS011;1535;51.098;6.414;2023-11-21T03:53:02;16.40;;;15.80;;
3050;SDS011;1535;51.098;6.414;2023-11-21T03:55:28;15.20;;;14.70;;
3050;SDS011;1535;51.098;6.414;2023-11-21T03:57:56;15.97;;;15.40;;
3050;SDS011;1535;51.098;6.414;2023-11-21T04:00:24;15.47;;;14.97;;
3050;SDS011;1535;51.098;6.414;2023-11-21T04:02:52;15.57;;;15.07;;
3050;SDS011;1535;51.098;6.414;2023-11-21T04:05:20;16.10;;;15.50;;
3050;SDS011;1535;51.098;6.414;2023-11-21T04:07:49;17.40;;;16.70;;
3050;SDS011;1535;51.098;6.414;2023-11-21T04:10:17;16.87;;;16.27;;
3050;SDS011;1535;51.098;6.414;2023-11-21T04:12:44;16.17;;;15.57;;
3050;SDS011;1535;51.098;6.414;2023-11-21T04:15:11;17.23;;;16.60;;
3050;SDS011;1535;51.098;6.414;2023-11-21T04:17:39;15.60;;;15.10;;
3050;SDS011;1535;51.098;6.414;2023-11-21T04:20:06;16.47;;;15.87;;
3050;SDS011;1535;51.098;6.414;2023-11-21T04:22:36;16.70;;;16.10;;
3050;SDS011;1535;51.098;6.414;2023-11-21T04:25:09;16.73;;;16.13;;
3050;SDS011;1535;51.098;6.414;2023-11-21T04:27:36;17.43;;;16.73;;
3050;SDS011;1535;51.098;6.414;2023-11-21T04:30:03;17.47;;;16.77;;
3050;SDS011;1535;51.098;6.414;2023-11-21T04:32:31;18.00;;;17.30;;
3050;SDS011;1535;51.098;6.414;2023-11-21T04:34:58;17.67;;;16.97;;
3050;SDS011;1535;51.098;6.414;2023-11-21T04:37:26;17.70;;;17.00;;
3050;SDS011;1535;51.098;6.414;2023-11-21T04:39:52;17.83;;;17.13;;
3050;SDS011;1535;51.098;6.414;2023-11-21T04:42:21;16.87;;;16.27;;
3050;SDS011;1535;51.098;6.414;2023-11-21T04:44:48;17.27;;;16.67;;
3050;SDS011;1535;51.098;6.414;2023-11-21T04:47:18;17.80;;;17.10;;
3050;SDS011;1535;51.098;6.414;2023-11-21T04:49:45;17.60;;;16.90;;
3050;SDS011;1535;51.098;6.414;2023-11-21T04:52:13;18.80;;;18.00;;
3050;SDS011;1535;51.098;6.414;2023-11-21T04:54:39;18.00;;;17.30;;
3050;SDS011;1535;51.098;6.414;2023-11-21T04:57:08;18.10;;;17.40;;
3050;SDS011;1535;51.098;6.414;2023-11-21T04:59:36;17.77;;;17.07;;
3050;SDS011;1535;51.098;6.414;2023-11-21T05:02:03;18.07;;;17.37;;
3050;SDS011;1535;51.098;6.414;2023-11-21T05:04:31;18.57;;;17.77;;
3050;SDS011;1535;51.098;6.414;2023-11-21T05:06:58;18.70;;;17.90;;
3050;SDS011;1535;51.098;6.414;2023-11-21T05:09:26;18.90;;;18.10;;
3050;SDS011;1535;51.098;6.414;2023-11-21T05:11:57;19.77;;;18.87;;
3050;SDS011;1535;51.098;6.414;2023-11-21T05:14:25;20.30;;;19.40;;
3050;SDS011;1535;51.098;6.414;2023-11-21T05:16:53;19.27;;;18.47;;
3050;SDS011;1535;51.098;6.414;2023-11-21T05:19:20;18.40;;;17.60;;
3050;SDS011;1535;51.098;6.414;2023-11-21T05:21:47;18.70;;;17.90;;
3050;SDS011;1535;51.098;6.414;2023-11-21T05:24:14;18.70;;;17.90;;
3050;SDS011;1535;51.098;6.414;2023-11-21T05:26:41;19.10;;;18.30;;
3050;SDS011;1535;51.098;6.414;2023-11-21T05:29:08;19.10;;;18.30;;
3050;SDS011;1535;51.098;6.414;2023-11-21T05:31:35;19.13;;;18.23;;
3050;SDS011;1535;51.098;6.414;2023-11-21T05:34:04;19.37;;;18.47;;
3050;SDS011;1535;51.098;6.414;2023-11-21T05:36:32;19.30;;;18.40;;
3050;SDS011;1535;51.098;6.414;2023-11-21T05:38:59;20.17;;;19.27;;
3050;SDS011;1535;51.098;6.414;2023-11-21T05:41:26;19.90;;;19.00;;
3050;SDS011;1535;51.098;6.414;2023-11-21T05:43:53;19.83;;;18.93;;
3050;SDS011;1535;51.098;6.414;2023-11-21T05:46:20;21.30;;;20.30;;
3050;SDS011;1535;51.098;6.414;2023-11-21T05:48:47;20.20;;;19.30;;
3050;SDS011;1535;51.098;6.414;2023-11-21T05:51:16;19.07;;;18.17;;
3050;SDS011;1535;51.098;6.414;2023-11-21T05:53:42;19.50;;;18.60;;
3050;SDS011;1535;51.098;6.414;2023-11-21T05:56:09;19.27;;;18.37;;
3050;SDS011;1535;51.098;6.414;2023-11-21T05:58:36;19.60;;;18.70;;
3050;SDS011;1535;51.098;6.414;2023-11-21T06:01:05;19.40;;;18.50;;
3050;SDS011;1535;51.098;6.414;2023-11-21T06:03:32;19.73;;;18.83;;
3050;SDS011;1535;51.098;6.414;2023-11-21T06:05:59;20.00;;;19.10;;
3050;SDS011;1535;51.098;6.414;2023-11-21T06:08:27;20.30;;;19.30;;
3050;SDS011;1535;51.098;6.414;2023-11-21T06:10:54;19.87;;;18.87;;
3050;SDS011;1535;51.098;6.414;2023-11-21T06:13:20;19.60;;;18.60;;
3050;SDS011;1535;51.098;6.414;2023-11-21T06:15:49;19.07;;;18.17;;
3050;SDS011;1535;51.098;6.414;2023-11-21T06:18:16;18.50;;;17.70;;
3050;SDS011;1535;51.098;6.414;2023-11-21T06:20:44;19.60;;;18.70;;
3050;SDS011;1535;51.098;6.414;2023-11-21T06:23:12;20.47;;;19.47;;
3050;SDS011;1535;51.098;6.414;2023-11-21T06:25:43;20.10;;;19.10;;
3050;SDS011;1535;51.098;6.414;2023-11-21T06:28:11;17.67;;;16.87;;
3050;SDS011;1535;51.098;6.414;2023-11-21T06:30:40;19.37;;;18.47;;
3050;SDS011;1535;51.098;6.414;2023-11-21T06:33:09;19.77;;;18.87;;
3050;SDS011;1535;51.098;6.414;2023-11-21T06:35:36;19.60;;;18.70;;
3050;SDS011;1535;51.098;6.414;2023-11-21T06:38:03;17.60;;;16.80;;
3050;SDS011;1535;51.098;6.414;2023-11-21T06:40:30;16.23;;;15.63;;
3050;SDS011;1535;51.098;6.414;2023-11-21T06:43:00;16.73;;;16.03;;
3050;SDS011;1535;51.098;6.414;2023-11-21T06:45:32;16.70;;;16.00;;
3050;SDS011;1535;51.098;6.414;2023-11-21T06:47:59;16.30;;;15.70;;
3050;SDS011;1535;51.098;6.414;2023-11-21T06:50:25;16.40;;;15.80;;
3050;SDS011;1535;51.098;6.414;2023-11-21T06:52:52;16.10;;;15.50;;
3050;SDS011;1535;51.098;6.414;2023-11-21T06:55:19;15.40;;;14.87;;
3050;SDS011;1535;51.098;6.414;2023-11-21T06:57:46;15.87;;;15.27;;
3050;SDS011;1535;51.098;6.414;2023-11-21T07:00:15;15.30;;;14.80;;
3050;SDS011;1535;51.098;6.414;2023-11-21T07:02:43;14.97;;;14.47;;
3050;SDS011;1535;51.098;6.414;2023-11-21T07:05:10;15.40;;;14.90;;
3050;SDS011;1535;51.098;6.414;2023-11-21T07:07:39;15.50;;;15.00;;
3050;SDS011;1535;51.098;6.414;2023-11-21T07:10:07;15.50;;;15.00;;
3050;SDS011;1535;51.098;6.414;2023-11-21T07:12:34;15.50;;;15.00;;
3050;SDS011;1535;51.098;6.414;2023-11-21T07:15:01;14.70;;;14.20;;
3050;SDS011;1535;51.098;6.414;2023-11-21T07:17:31;14.90;;;14.40;;
3050;SDS011;1535;51.098;6.414;2023-11-21T07:20:00;15.70;;;15.10;;
3050;SDS011;1535;51.098;6.414;2023-11-21T07:22:26;15.20;;;14.70;;
3050;SDS011;1535;51.098;6.414;2023-11-21T07:24:53;15.40;;;14.90;;
3050;SDS011;1535;51.098;6.414;2023-11-21T07:27:21;14.57;;;14.07;;
3050;SDS011;1535;51.098;6.414;2023-11-21T07:29:48;15.27;;;14.77;;
3050;SDS011;1535;51.098;6.414;2023-11-21T07:32:15;15.20;;;14.70;;
3050;SDS011;1535;51.098;6.414;2023-11-21T07:34:43;15.27;;;14.77;;
3050;SDS011;1535;51.098;6.414;2023-11-21T07:37:11;15.00;;;14.50;;
3050;SDS011;1535;51.098;6.414;2023-11-21T07:39:38;15.73;;;15.13;;
3050;SDS011;1535;51.098;6.414;2023-11-21T07:42:06;15.10;;;14.60;;
3050;SDS011;1535;51.098;6.414;2023-11-21T07:44:34;14.73;;;14.23;;
3050;SDS011;1535;51.098;6.414;2023-11-21T07:47:03;14.50;;;14.00;;
3050;SDS011;1535;51.098;6.414;2023-11-21T07:49:30;14.43;;;13.93;;
3050;SDS011;1535;51.098;6.414;2023-11-21T07:51:58;14.87;;;14.37;;
3050;SDS011;1535;51.098;6.414;2023-11-21T07:54:25;14.90;;;14.40;;
3050;SDS011;1535;51.098;6.414;2023-11-21T07:56:53;15.33;;;14.73;;
3050;SDS011;1535;51.098;6.414;2023-11-21T07:59:20;14.50;;;14.00;;
3050;SDS011;1535;51.098;6.414;2023-11-21T08:01:48;14.93;;;14.43;;
3050;SDS011;1535;51.098;6.414;2023-11-21T08:04:15;14.70;;;14.20;;
3050;SDS011;1535;51.098;6.414;2023-11-21T08:06:42;15.27;;;14.67;;
3050;SDS011;1535;51.098;6.414;2023-11-21T08:09:10;15.10;;;14.60;;
3050;SDS011;1535;51.098;6.414;2023-11-21T08:11:37;14.50;;;14.00;;
3050;SDS011;1535;51.098;6.414;2023-11-21T08:14:04;14.80;;;14.30;;
3050;SDS011;1535;51.098;6.414;2023-11-21T08:16:31;14.30;;;13.80;;
3050;SDS011;1535;51.098;6.414;2023-11-21T08:18:58;14.50;;;14.00;;
3050;SDS011;1535;51.098;6.414;2023-11-21T08:21:25;13.90;;;13.40;;
3050;SDS011;1535;51.098;6.414;2023-11-21T08:23:54;14.50;;;14.00;;
3050;SDS011;1535;51.098;6.414;2023-11-21T08:26:23;13.73;;;13.33;;
3050;SDS011;1535;51.098;6.414;2023-11-21T08:28:50;14.23;;;13.73;;
3050;SDS011;1535;51.098;6.414;2023-11-21T08:31:23;14.67;;;14.17;;
3050;SDS011;1535;51.098;6.414;2023-11-21T08:33:51;14.27;;;13.77;;
3050;SDS011;1535;51.098;6.414;2023-11-21T08:36:20;13.37;;;12.97;;
3050;SDS011;1535;51.098;6.414;2023-11-21T08:38:49;14.07;;;13.57;;
3050;SDS011;1535;51.098;6.414;2023-11-21T08:41:17;14.50;;;14.00;;
3050;SDS011;1535;51.098;6.414;2023-11-21T08:43:47;13.33;;;12.93;;
3050;SDS011;1535;51.098;6.414;2023-11-21T08:46:15;14.47;;;13.97;;
3050;SDS011;1535;51.098;6.414;2023-11-21T08:48:43;13.37;;;12.97;;
3050;SDS011;1535;51.098;6.414;2023-11-21T08:51:10;12.80;;;12.40;;
3050;SDS011;1535;51.098;6.414;2023-11-21T08:53:38;13.73;;;13.33;;
3050;SDS011;1535;51.098;6.414;2023-11-21T08:56:05;13.47;;;13.07;;
3050;SDS011;1535;51.098;6.414;2023-11-21T08:58:34;13.20;;;12.80;;
3050;SDS011;1535;51.098;6.414;2023-11-21T09:01:03;13.50;;;13.10;;
3050;SDS011;1535;51.098;6.414;2023-11-21T09:03:31;14.40;;;13.90;;
3050;SDS011;1535;51.098;6.414;2023-11-21T09:05:59;14.80;;;14.30;;
3050;SDS011;1535;51.098;6.414;2023-11-21T09:08:26;14.90;;;14.40;;
3050;SDS011;1535;51.098;6.414;2023-11-21T09:10:54;14.73;;;14.23;;
3050;SDS011;1535;51.098;6.414;2023-11-21T09:13:22;14.83;;;14.33;;
3050;SDS011;1535;51.098;6.414;2023-11-21T09:15:49;14.20;;;13.70;;
3050;SDS011;1535;51.098;6.414;2023-11-21T09:18:18;14.23;;;13.73;;
3050;SDS011;1535;51.098;6.414;2023-11-21T09:20:45;14.40;;;13.90;;
3050;SDS011;1535;51.098;6.414;2023-11-21T09:23:12;14.03;;;13.53;;
3050;SDS011;1535;51.098;6.414;2023-11-21T09:25:40;13.90;;;13.40;;
3050;SDS011;1535;51.098;6.414;2023-11-21T09:28:11;14.63;;;14.13;;
3050;SDS011;1535;51.098;6.414;2023-11-21T09:30:38;14.63;;;14.13;;
3050;SDS011;1535;51.098;6.414;2023-11-21T09:33:06;13.50;;;13.10;;
3050;SDS011;1535;51.098;6.414;2023-11-21T09:35:36;13.27;;;12.87;;
3050;SDS011;1535;51.098;6.414;2023-11-21T09:38:04;14.00;;;13.50;;
3050;SDS011;1535;51.098;6.414;2023-11-21T09:40:35;14.60;;;14.10;;
3050;SDS011;1535;51.098;6.414;2023-11-21T09:43:02;13.50;;;13.10;;
3050;SDS011;1535;51.098;6.414;2023-11-21T09:45:34;13.70;;;13.20;;
3050;SDS011;1535;51.098;6.414;2023-11-21T09:48:02;14.00;;;13.50;;
3050;SDS011;1535;51.098;6.414;2023-11-21T09:50:30;14.33;;;13.83;;
3050;SDS011;1535;51.098;6.414;2023-11-21T09:53:03;15.47;;;14.87;;
3050;SDS011;1535;51.098;6.414;2023-11-21T09:55:39;13.93;;;13.43;;
3050;SDS011;1535;51.098;6.414;2023-11-21T09:58:09;14.37;;;13.87;;
3050;SDS011;1535;51.098;6.414;2023-11-21T10:00:38;15.00;;;14.40;;
3050;SDS011;1535;51.098;6.414;2023-11-21T10:03:07;14.33;;;13.83;;
3050;SDS011;1535;51.098;6.414;2023-11-21T10:05:35;14.60;;;14.00;;
3050;SDS011;1535;51.098;6.414;2023-11-21T10:08:04;13.77;;;13.27;;
3050;SDS011;1535;51.098;6.414;2023-11-21T10:10:34;14.37;;;13.87;;
3050;SDS011;1535;51.098;6.414;2023-11-21T10:13:03;13.60;;;13.10;;
3050;SDS011;1535;51.098;6.414;2023-11-21T10:15:33;13.83;;;13.33;;
3050;SDS011;1535;51.098;6.414;2023-11-21T10:18:01;14.50;;;14.00;;
3050;SDS011;1535;51.098;6.414;2023-11-21T10:20:29;12.60;;;12.20;;
3050;SDS011;1535;51.098;6.414;2023-11-21T10:22:58;12.67;;;12.27;;
3050;SDS011;1535;51.098;6.414;2023-11-21T10:25:29;12.70;;;12.30;;
3050;SDS011;1535;51.098;6.414;2023-11-21T10:27:57;13.33;;;12.83;;
3050;SDS011;1535;51.098;6.414;2023-11-21T10:30:28;12.97;;;12.57;;
3050;SDS011;1535;51.098;6.414;2023-11-21T10:33:02;12.50;;;12.10;;
3050;SDS011;1535;51.098;6.414;2023-11-21T10:35:39;12.20;;;11.80;;
3050;SDS011;1535;51.098;6.414;2023-11-21T10:38:11;13.20;;;12.70;;
3050;SDS011;1535;51.098;6.414;2023-11-21T10:40:40;13.30;;;12.80;;
3050;SDS011;1535;51.098;6.414;2023-11-21T10:43:08;13.17;;;12.70;;
3050;SDS011;1535;51.098;6.414;2023-11-21T10:45:36;13.50;;;13.00;;
3050;SDS011;1535;51.098;6.414;2023-11-21T10:48:04;13.13;;;12.70;;
3050;SDS011;1535;51.098;6.414;2023-11-21T10:50:33;13.33;;;12.83;;
3050;SDS011;1535;51.098;6.414;2023-11-21T10:53:01;13.03;;;12.63;;
3050;SDS011;1535;51.098;6.414;2023-11-21T10:55:29;13.40;;;12.90;;
3050;SDS011;1535;51.098;6.414;2023-11-21T10:57:59;13.07;;;12.67;;
3050;SDS011;1535;51.098;6.414;2023-11-21T11:00:27;12.50;;;12.10;;
3050;SDS011;1535;51.098;6.414;2023-11-21T11:02:54;12.97;;;12.57;;
3050;SDS011;1535;51.098;6.414;2023-11-21T11:05:22;12.90;;;12.50;;
3050;SDS011;1535;51.098;6.414;2023-11-21T11:07:51;12.67;;;12.27;;
3050;SDS011;1535;51.098;6.414;2023-11-21T11:10:25;12.63;;;12.23;;
3050;SDS011;1535;51.098;6.414;2023-11-21T11:12:52;12.57;;;12.17;;
3050;SDS011;1535;51.098;6.414;2023-11-21T11:15:21;12.80;;;12.40;;
3050;SDS011;1535;51.098;6.414;2023-11-21T11:17:49;13.00;;;12.60;;
3050;SDS011;1535;51.098;6.414;2023-11-21T11:20:16;12.90;;;12.50;;
3050;SDS011;1535;51.098;6.414;2023-11-21T11:22:48;12.90;;;12.50;;
3050;SDS011;1535;51.098;6.414;2023-11-21T11:25:28;13.07;;;12.67;;
3050;SDS011;1535;51.098;6.414;2023-11-21T11:28:04;12.90;;;12.50;;
3050;SDS011;1535;51.098;6.414;2023-11-21T11:30:41;12.90;;;12.50;;
3050;SDS011;1535;51.098;6.414;2023-11-21T11:33:29;13.27;;;12.77;;
3050;SDS011;1535;51.098;6.414;2023-11-21T11:36:04;13.70;;;13.20;;
3050;SDS011;1535;51.098;6.414;2023-11-21T11:38:36;13.50;;;13.00;;
3050;SDS011;1535;51.098;6.414;2023-11-21T11:41:04;12.90;;;12.50;;
3050;SDS011;1535;51.098;6.414;2023-11-21T11:43:31;13.13;;;12.73;;
3050;SDS011;1535;51.098;6.414;2023-11-21T11:46:09;13.10;;;12.70;;
3050;SDS011;1535;51.098;6.414;2023-11-21T11:48:38;13.20;;;12.80;;
3050;SDS011;1535;51.098;6.414;2023-11-21T11:51:05;12.80;;;12.40;;
3050;SDS011;1535;51.098;6.414;2023-11-21T11:53:37;13.20;;;12.80;;
3050;SDS011;1535;51.098;6.414;2023-11-21T11:56:19;12.60;;;12.20;;
3050;SDS011;1535;51.098;6.414;2023-11-21T11:58:53;13.10;;;12.70;;
3050;SDS011;1535;51.098;6.414;2023-11-21T12:01:22;12.93;;;12.53;;
3050;SDS011;1535;51.098;6.414;2023-11-21T12:07:01;13.00;;;12.60;;
3050;SDS011;1535;51.098;6.414;2023-11-21T12:09:29;13.10;;;12.70;;
3050;SDS011;1535;51.098;6.414;2023-11-21T12:11:57;13.00;;;12.60;;
3050;SDS011;1535;51.098;6.414;2023-11-21T12:14:25;12.87;;;12.47;;
3050;SDS011;1535;51.098;6.414;2023-11-21T12:16:54;13.40;;;13.00;;
3050;SDS011;1535;51.098;6.414;2023-11-21T12:19:21;13.23;;;12.83;;
3050;SDS011;1535;51.098;6.414;2023-11-21T12:21:49;13.60;;;13.10;;
3050;SDS011;1535;51.098;6.414;2023-11-21T12:24:17;14.07;;;13.57;;
3050;SDS011;1535;51.098;6.414;2023-11-21T12:26:44;13.50;;;13.00;;
3050;SDS011;1535;51.098;6.414;2023-11-21T12:29:11;13.90;;;13.40;;
3050;SDS011;1535;51.098;6.414;2023-11-21T12:31:38;13.60;;;13.10;;
3050;SDS011;1535;51.098;6.414;2023-11-21T12:34:07;13.10;;;12.70;;
3050;SDS011;1535;51.098;6.414;2023-11-21T12:36:36;13.90;;;13.40;;
3050;SDS011;1535;51.098;6.414;2023-11-21T12:39:04;13.63;;;13.13;;
3050;SDS011;1535;51.098;6.414;2023-11-21T12:41:34;13.83;;;13.33;;
3050;SDS011;1535;51.098;6.414;2023-11-21T12:44:00;13.20;;;12.80;;
3050;SDS011;1535;51.098;6.414;2023-11-21T12:46:28;12.83;;;12.43;;
3050;SDS011;1535;51.098;6.414;2023-11-21T12:48:56;12.70;;;12.30;;
3050;SDS011;1535;51.098;6.414;2023-11-21T12:51:25;12.37;;;11.97;;
3050;SDS011;1535;51.098;6.414;2023-11-21T12:53:52;12.63;;;12.23;;
3050;SDS011;1535;51.098;6.414;2023-11-21T12:56:21;12.30;;;11.90;;
3050;SDS011;1535;51.098;6.414;2023-11-21T12:58:49;12.50;;;12.10;;
3050;SDS011;1535;51.098;6.414;2023-11-21T13:01:17;12.63;;;12.23;;
3050;SDS011;1535;51.098;6.414;2023-11-21T13:03:47;12.70;;;12.30;;
3050;SDS011;1535;51.098;6.414;2023-11-21T13:06:16;12.23;;;11.83;;
3050;SDS011;1535;51.098;6.414;2023-11-21T13:08:45;12.53;;;12.13;;
3050;SDS011;1535;51.098;6.414;2023-11-21T13:11:12;12.60;;;12.20;;
3050;SDS011;1535;51.098;6.414;2023-11-21T13:13:42;13.20;;;12.70;;
3050;SDS011;1535;51.098;6.414;2023-11-21T13:16:10;12.40;;;12.00;;
3050;SDS011;1535;51.098;6.414;2023-11-21T13:18:38;12.40;;;12.00;;
3050;SDS011;1535;51.098;6.414;2023-11-21T13:21:07;12.40;;;12.00;;
3050;SDS011;1535;51.098;6.414;2023-11-21T13:23:38;13.00;;;12.50;;
3050;SDS011;1535;51.098;6.414;2023-11-21T13:26:08;12.73;;;12.30;;
3050;SDS011;1535;51.098;6.414;2023-11-21T13:28:35;12.33;;;11.93;;
3050;SDS011;1535;51.098;6.414;2023-11-21T13:31:03;12.03;;;11.63;;
3050;SDS011;1535;51.098;6.414;2023-11-21T13:33:45;11.97;;;11.57;;
3050;SDS011;1535;51.098;6.414;2023-11-21T13:36:20;12.30;;;11.90;;
3050;SDS011;1535;51.098;6.414;2023-11-21T13:38:48;12.00;;;11.60;;
3050;SDS011;1535;51.098;6.414;2023-11-21T13:41:17;12.83;;;12.43;;
3050;SDS011;1535;51.098;6.414;2023-11-21T13:43:44;12.37;;;11.97;;
3050;SDS011;1535;51.098;6.414;2023-11-21T13:46:16;11.80;;;11.40;;
3050;SDS011;1535;51.098;6.414;2023-11-21T13:48:46;11.83;;;11.43;;
3050;SDS011;1535;51.098;6.414;2023-11-21T13:51:16;12.60;;;12.20;;
3050;SDS011;1535;51.098;6.414;2023-11-21T13:53:43;12.00;;;11.60;;
3050;SDS011;1535;51.098;6.414;2023-11-21T13:56:13;12.43;;;12.03;;
3050;SDS011;1535;51.098;6.414;2023-11-21T13:58:46;12.53;;;12.13;;
3050;SDS011;1535;51.098;6.414;2023-11-21T14:01:16;12.23;;;11.83;;
3050;SDS011;1535;51.098;6.414;2023-11-21T14:04:06;12.43;;;12.03;;
3050;SDS011;1535;51.098;6.414;2023-11-21T14:06:44;11.60;;;11.30;;
3050;SDS011;1535;51.098;6.414;2023-11-21T14:09:13;11.40;;;11.10;;
3050;SDS011;1535;51.098;6.414;2023-11-21T14:11:48;11.00;;;10.70;;
3050;SDS011;1535;51.098;6.414;2023-11-21T14:14:18;11.53;;;11.23;;
3050;SDS011;1535;51.098;6.414;2023-11-21T14:16:46;10.70;;;10.40;;
3050;SDS011;1535;51.098;6.414;2023-11-21T14:19:13;10.50;;;10.20;;
3050;SDS011;1535;51.098;6.414;2023-11-21T14:21:43;10.20;;;9.90;;
3050;SDS011;1535;51.098;6.414;2023-11-21T14:24:10;10.70;;;10.40;;
3050;SDS011;1535;51.098;6.414;2023-11-21T14:26:40;10.20;;;9.93;;
3050;SDS011;1535;51.098;6.414;2023-11-21T14:29:07;11.10;;;10.80;;
3050;SDS011;1535;51.098;6.414;2023-11-21T14:31:37;11.07;;;10.77;;
3050;SDS011;1535;51.098;6.414;2023-11-21T14:34:04;11.63;;;11.33;;
3050;SDS011;1535;51.098;6.414;2023-11-21T14:36:32;10.90;;;10.60;;
3050;SDS011;1535;51.098;6.414;2023-11-21T14:39:00;10.97;;;10.67;;
3050;SDS011;1535;51.098;6.414;2023-11-21T14:41:28;10.83;;;10.53;;
3050;SDS011;1535;51.098;6.414;2023-11-21T14:43:55;11.27;;;10.97;;
3050;SDS011;1535;51.098;6.414;2023-11-21T14:46:22;11.40;;;11.10;;
3050;SDS011;1535;51.098;6.414;2023-11-21T14:48:51;10.70;;;10.40;;
3050;SDS011;1535;51.098;6.414;2023-11-21T14:51:27;10.40;;;10.20;;
3050;SDS011;1535;51.098;6.414;2023-11-21T14:53:56;9.90;;;9.70;;
3050;SDS011;1535;51.098;6.414;2023-11-21T14:56:30;9.90;;;9.70;;
3050;SDS011;1535;51.098;6.414;2023-11-21T14:58:59;9.70;;;9.50;;